Orbital elements of CZ-4C DEB
| Launched | 28 January 2021 |
| Flight ended | – |
| Launch site | Jiuquan Space Center, PRC |
| Owner | People's Republic of China |
| NORAD ID | 47534 |
| Date fetched |
Epoch osculation |
Inc. [°] |
Ecc. | RA asc node [hr] |
Arg Peri. [°] |
Mean anom [°] |
Mean motion [rev/day] |
Abs. mag |
| Date fetched |
Epoch osculation |
Inc. [°] |
Ecc. | RA asc node [hr] |
Arg Peri. [°] |
Mean anom [°] |
Mean motion [rev/day] |
Abs. mag |
| 2026 May 07 17:58 | 2026 May 05 07:42:24 | 63.4048 | 0.01723 | 17.3801 | 2.0575 | 358.1123 | 13.44627 | – |
| 2026 May 06 17:57 | 2026 May 05 07:42:24 | 63.4048 | 0.01723 | 17.3801 | 2.0575 | 358.1123 | 13.44627 | – |
| 2026 May 05 17:57 | 2026 May 05 07:42:24 | 63.4048 | 0.01723 | 17.3801 | 2.0575 | 358.1123 | 13.44627 | – |
| 2026 May 04 17:57 | 2026 Apr 30 13:28:27 | 63.4044 | 0.01719 | 18.1944 | 2.0551 | 358.1123 | 13.44627 | – |
| 2026 May 03 17:57 | 2026 Apr 30 13:28:27 | 63.4044 | 0.01719 | 18.1944 | 2.0551 | 358.1123 | 13.44627 | – |
| 2026 May 02 17:57 | 2026 Apr 30 13:28:27 | 63.4044 | 0.01719 | 18.1944 | 2.0551 | 358.1123 | 13.44627 | – |
| 2026 May 01 17:56 | 2026 Apr 30 13:28:27 | 63.4044 | 0.01719 | 18.1944 | 2.0551 | 358.1123 | 13.44627 | – |
| 2026 Apr 30 17:56 | 2026 Apr 30 13:28:27 | 63.4044 | 0.01719 | 18.1944 | 2.0551 | 358.1123 | 13.44627 | – |
| 2026 Apr 29 17:57 | 2026 Apr 24 12:53:55 | 63.4041 | 0.01714 | 19.2249 | 2.0575 | 358.1123 | 13.44627 | – |
| 2026 Apr 28 17:56 | 2026 Apr 24 12:53:55 | 63.4041 | 0.01714 | 19.2249 | 2.0575 | 358.1123 | 13.44627 | – |
| 2026 Apr 27 17:58 | 2026 Apr 24 12:53:55 | 63.4041 | 0.01714 | 19.2249 | 2.0575 | 358.1123 | 13.44627 | – |
| 2026 Apr 26 17:58 | 2026 Apr 24 12:53:55 | 63.4041 | 0.01714 | 19.2249 | 2.0575 | 358.1123 | 13.44627 | – |
| 2026 Apr 25 17:58 | 2026 Apr 24 12:53:55 | 63.4041 | 0.01714 | 19.2249 | 2.0575 | 358.1123 | 13.44627 | – |
| 2026 Apr 24 17:59 | 2026 Apr 24 12:53:55 | 63.4041 | 0.01714 | 19.2249 | 2.0575 | 358.1123 | 13.44627 | – |
| 2026 Apr 23 17:57 | 2026 Apr 19 06:10:19 | 63.4046 | 0.01710 | 20.1283 | 2.0510 | 358.1123 | 13.44627 | – |
| 2026 Apr 22 17:57 | 2026 Apr 19 06:10:19 | 63.4046 | 0.01710 | 20.1283 | 2.0510 | 358.1123 | 13.44627 | – |
| 2026 Apr 21 17:57 | 2026 Apr 19 06:10:19 | 63.4046 | 0.01710 | 20.1283 | 2.0510 | 358.1123 | 13.44627 | – |
| 2026 Apr 20 17:57 | 2026 Apr 19 06:10:19 | 63.4046 | 0.01710 | 20.1283 | 2.0510 | 358.1123 | 13.44627 | – |
| 2026 Apr 19 17:58 | 2026 Apr 19 06:10:19 | 63.4046 | 0.01710 | 20.1283 | 2.0510 | 358.1123 | 13.44627 | – |
| 2026 Apr 18 17:56 | 2026 Apr 13 00:14:30 | 63.4056 | 0.01705 | 21.1971 | 2.0238 | 358.1123 | 13.44627 | – |
| 2026 Apr 16 17:57 | 2026 Apr 13 00:14:30 | 63.4056 | 0.01705 | 21.1971 | 2.0238 | 358.1123 | 13.44627 | – |
| 2026 Apr 14 17:57 | 2026 Apr 13 00:14:30 | 63.4056 | 0.01705 | 21.1971 | 2.0238 | 358.1123 | 13.44627 | – |
| 2026 Apr 13 17:57 | 2026 Apr 13 00:14:30 | 63.4056 | 0.01705 | 21.1971 | 2.0238 | 358.1123 | 13.44627 | – |
| 2026 Apr 12 17:57 | 2026 Apr 08 00:39:15 | 63.4066 | 0.01701 | 22.0495 | 1.9977 | 358.1123 | 13.44627 | – |
| 2026 Apr 11 17:57 | 2026 Apr 08 00:39:15 | 63.4066 | 0.01701 | 22.0495 | 1.9977 | 358.1123 | 13.44627 | – |
| 2026 Apr 10 17:58 | 2026 Apr 08 00:39:15 | 63.4066 | 0.01701 | 22.0495 | 1.9977 | 358.1123 | 13.44627 | – |